Time;durP1;ratioP1;P1;durP2;ratioP2;P2;SDS_P1;SDS_P2;PMS_P1;PMS_P2;Temp;Humidity;BMP_temperature;BMP_pressure;BME280_temperature;BME280_humidity;BME280_pressure;Samples;Min_cycle;Max_cycle;Signal;HPM_P1;HPM_P2
2023/09/20 00:01:53;;;;;;;11.55;3.25;;;19.30;99.90;;;;;;5077492;28;20121;-84
2023/09/20 00:04:20;;;;;;;10.00;2.95;;;19.20;99.90;;;;;;5091970;28;20028;-84
2023/09/20 00:06:46;;;;;;;9.93;3.72;;;19.30;99.90;;;;;;5092038;28;20027;-85
2023/09/20 00:09:13;;;;;;;7.28;3.05;;;19.20;99.90;;;;;;5090602;28;20036;-86
2023/09/20 00:11:40;;;;;;;12.38;3.80;;;19.30;99.90;;;;;;5091535;28;20020;-85
2023/09/20 00:14:06;;;;;;;11.75;3.17;;;19.20;99.90;;;;;;5092733;28;20030;-87
2023/09/20 00:16:32;;;;;;;12.70;3.60;;;19.30;99.90;;;;;;5091981;28;20028;-86
2023/09/20 00:18:57;;;;;;;12.48;3.30;;;19.30;99.90;;;;;;5091862;28;20031;-86
2023/09/20 00:21:23;;;;;;;9.90;3.00;;;19.30;99.90;;;;;;5089975;28;20036;-87
2023/09/20 00:23:49;;;;;;;9.50;3.72;;;19.30;99.90;;;;;;5078162;28;20024;-85
2023/09/20 00:26:17;;;;;;;9.30;3.20;;;19.30;99.90;;;;;;5070050;28;20074;-87
2023/09/20 00:28:46;;;;;;;;;;;19.20;99.90;;;;;;5071803;28;20531;-84
2023/09/20 00:31:12;;;;;;;10.63;3.42;;;19.20;99.90;;;;;;5070084;28;19912;-85
2023/09/20 00:33:39;;;;;;;11.05;3.22;;;19.10;99.90;;;;;;5070788;28;20029;-84
2023/09/20 00:36:05;;;;;;;11.20;3.70;;;19.00;99.90;;;;;;5072142;28;20082;-90
2023/09/20 00:38:30;;;;;;;10.18;3.35;;;19.00;99.90;;;;;;5071402;28;20476;-85
2023/09/20 00:40:56;;;;;;;11.50;3.58;;;19.00;99.90;;;;;;5069893;28;20028;-85
2023/09/20 00:43:25;;;;;;;10.05;3.35;;;19.00;99.90;;;;;;5071308;28;20032;-85
2023/09/20 00:45:51;;;;;;;12.73;3.60;;;19.00;99.90;;;;;;5081982;28;20028;-85
2023/09/20 00:48:17;;;;;;;10.73;3.25;;;19.00;99.90;;;;;;5091122;28;20034;-85
2023/09/20 00:50:43;;;;;;;12.40;3.80;;;18.80;99.90;;;;;;5091073;28;20115;-87
2023/09/20 00:53:13;;;;;;;9.90;3.33;;;18.80;99.90;;;;;;5090373;28;20123;-84
2023/09/20 00:55:40;;;;;;;8.75;3.30;;;18.90;99.90;;;;;;5091518;28;20161;-84
2023/09/20 00:58:14;;;;;;;12.68;3.70;;;18.80;99.90;;;;;;5090900;28;20054;-89
2023/09/20 01:00:43;;;;;;;9.43;3.35;;;18.90;99.90;;;;;;5091642;28;20024;-83
2023/09/20 01:03:09;;;;;;;10.07;3.30;;;18.80;99.90;;;;;;5090455;28;20024;-84
2023/09/20 01:05:37;;;;;;;10.48;4.20;;;18.80;99.90;;;;;;5091861;28;20031;-84
2023/09/20 01:08:04;;;;;;;13.57;3.47;;;18.70;99.90;;;;;;5089859;28;20069;-83
2023/09/20 01:10:36;;;;;;;7.90;3.20;;;18.70;99.90;;;;;;5089678;28;20044;-86
2023/09/20 01:13:03;;;;;;;10.60;3.25;;;18.70;99.90;;;;;;5085426;28;20070;-85
2023/09/20 01:15:31;;;;;;;13.75;4.07;;;18.70;99.90;;;;;;5071577;28;20035;-84
2023/09/20 01:17:58;;;;;;;10.85;3.17;;;18.60;99.90;;;;;;5084955;28;20028;-84
2023/09/20 01:20:25;;;;;;;17.17;4.22;;;18.60;99.90;;;;;;5085409;28;20335;-83
2023/09/20 01:22:54;;;;;;;11.32;3.75;;;18.60;99.90;;;;;;5084415;28;20016;-85
2023/09/20 01:25:27;;;;;;;12.02;4.15;;;18.70;99.90;;;;;;5089471;28;20116;-84
2023/09/20 01:27:55;;;;;;;10.95;3.13;;;18.50;99.90;;;;;;5088818;28;20077;-83
2023/09/20 01:30:21;;;;;;;;;;;18.50;99.90;;;;;;5090348;28;20038;-86
2023/09/20 01:32:47;;;;;;;9.15;3.60;;;18.50;99.90;;;;;;5090179;28;19951;-85
2023/09/20 01:35:16;;;;;;;11.75;3.55;;;18.50;99.90;;;;;;5090258;28;20052;-86
2023/09/20 01:37:42;;;;;;;10.98;4.07;;;18.50;99.90;;;;;;5088000;28;20118;-85
2023/09/20 01:40:15;;;;;;;9.60;3.53;;;18.50;99.90;;;;;;5091002;28;20062;-85
2023/09/20 01:42:42;;;;;;;11.23;3.22;;;18.60;99.90;;;;;;5070681;28;20380;-87
2023/09/20 01:45:14;;;;;;;9.15;3.35;;;18.60;99.90;;;;;;5070436;28;20047;-85
2023/09/20 01:47:41;;;;;;;12.18;3.70;;;18.60;99.90;;;;;;5086187;28;20025;-85
2023/09/20 01:50:07;;;;;;;8.88;3.25;;;18.60;99.90;;;;;;5069820;28;20412;-84
2023/09/20 01:52:33;;;;;;;10.55;3.70;;;18.60;99.90;;;;;;5069396;28;20514;-84
2023/09/20 01:55:01;;;;;;;9.98;3.42;;;18.70;99.90;;;;;;5071940;28;20032;-84
2023/09/20 01:57:26;;;;;;;10.35;3.30;;;18.70;99.90;;;;;;5088240;28;20477;-84
2023/09/20 01:59:52;;;;;;;8.02;3.13;;;18.70;99.90;;;;;;5089800;28;20039;-85
2023/09/20 02:02:17;;;;;;;9.55;3.30;;;18.70;99.90;;;;;;5087378;28;20024;-85
2023/09/20 02:04:43;;;;;;;8.23;3.15;;;18.70;99.90;;;;;;5069728;28;20028;-84
2023/09/20 02:07:10;;;;;;;8.82;3.25;;;18.70;99.90;;;;;;5069777;28;20056;-86
2023/09/20 02:09:35;;;;;;;12.30;3.53;;;18.70;99.90;;;;;;5068696;28;20107;-87
2023/09/20 02:12:01;;;;;;;11.18;3.85;;;18.70;99.90;;;;;;5087862;28;20118;-83
2023/09/20 02:14:27;;;;;;;10.13;3.70;;;18.70;99.90;;;;;;5111318;27;20042;-84
2023/09/20 02:16:53;;;;;;;11.32;3.53;;;18.70;99.90;;;;;;5089282;28;20118;-84
2023/09/20 02:19:19;;;;;;;13.23;3.70;;;18.70;99.90;;;;;;5090617;28;20031;-84
2023/09/20 02:21:46;;;;;;;11.43;3.55;;;18.70;99.90;;;;;;5089354;28;20387;-84
2023/09/20 02:24:11;;;;;;;10.32;3.70;;;18.70;99.90;;;;;;5090392;28;20016;-86
2023/09/20 02:26:37;;;;;;;8.55;3.20;;;18.70;99.90;;;;;;5089562;28;20107;-86
2023/09/20 02:29:03;;;;;;;8.82;3.00;;;18.70;99.90;;;;;;5088179;28;20020;-83
2023/09/20 02:31:28;;;;;;;7.88;3.45;;;18.70;99.90;;;;;;5089137;28;20051;-84
2023/09/20 02:33:55;;;;;;;8.02;3.20;;;18.70;99.90;;;;;;5089417;28;20535;-83
2023/09/20 02:36:21;;;;;;;10.60;3.42;;;18.70;99.90;;;;;;5089412;28;20024;-88
2023/09/20 02:38:46;;;;;;;9.50;3.33;;;18.70;99.90;;;;;;5089766;28;20074;-87
2023/09/20 02:41:12;;;;;;;12.18;3.50;;;18.70;99.90;;;;;;5089538;28;20036;-88
2023/09/20 02:43:38;;;;;;;6.30;3.15;;;18.70;99.90;;;;;;5088708;28;20073;-89
2023/09/20 02:46:05;;;;;;;12.32;3.67;;;18.70;99.90;;;;;;5084649;28;20043;-88
2023/09/20 02:48:31;;;;;;;13.75;4.03;;;18.70;99.90;;;;;;5069387;28;20025;-88
2023/09/20 02:51:00;;;;;;;8.88;3.45;;;18.70;99.90;;;;;;5068374;28;20032;-89
2023/09/20 02:53:26;;;;;;;14.40;4.75;;;18.70;99.90;;;;;;5068348;28;20024;-88
2023/09/20 02:55:54;;;;;;;13.05;3.65;;;18.70;99.90;;;;;;5068201;28;20044;-89
2023/09/20 02:58:20;;;;;;;;;;;18.70;99.90;;;;;;5069873;28;20018;-89
2023/09/20 03:00:50;;;;;;;11.10;3.45;;;18.60;99.90;;;;;;5069079;28;20086;-89
2023/09/20 03:03:17;;;;;;;8.45;3.58;;;18.50;99.90;;;;;;5068859;28;20021;-85
2023/09/20 03:05:44;;;;;;;11.00;3.40;;;18.50;99.90;;;;;;5071577;28;20028;-89
2023/09/20 03:08:13;;;;;;;7.70;3.38;;;18.60;99.90;;;;;;5089511;28;20016;-89
2023/09/20 03:10:41;;;;;;;7.03;2.97;;;18.60;99.90;;;;;;5088289;28;20063;-88
2023/09/20 03:13:07;;;;;;;;;;;18.60;99.90;;;;;;5089895;28;20558;-88
2023/09/20 03:15:33;;;;;;;9.18;3.72;;;18.60;99.90;;;;;;5089651;28;19904;-85
2023/09/20 03:18:05;;;;;;;12.18;4.07;;;18.50;99.90;;;;;;5089265;28;20073;-91
2023/09/20 03:20:34;;;;;;;12.73;3.60;;;18.50;99.90;;;;;;5080583;28;20059;-89
2023/09/20 03:23:03;;;;;;;12.20;3.40;;;18.50;99.90;;;;;;5069263;28;20396;-90
2023/09/20 03:25:34;;;;;;;13.13;3.70;;;18.50;99.90;;;;;;5069248;28;20082;-88
2023/09/20 03:27:59;;;;;;;11.50;3.78;;;18.60;99.90;;;;;;5068157;28;20055;-86
2023/09/20 03:30:28;;;;;;;11.73;3.65;;;18.60;99.90;;;;;;5067754;28;20072;-89
2023/09/20 03:32:54;;;;;;;8.93;3.80;;;18.60;99.90;;;;;;5067787;28;20107;-88
2023/09/20 03:35:21;;;;;;;8.70;3.25;;;18.70;99.90;;;;;;5067941;28;20505;-90
2023/09/20 03:37:47;;;;;;;14.15;3.25;;;18.70;99.90;;;;;;5068921;28;20017;-88
2023/09/20 03:40:17;;;;;;;10.82;3.53;;;18.70;99.90;;;;;;5068161;28;20044;-88
2023/09/20 03:42:48;;;;;;;8.77;3.50;;;18.70;99.90;;;;;;5067853;28;20153;-87
2023/09/20 03:45:14;;;;;;;13.23;3.58;;;18.70;99.90;;;;;;5069682;28;20048;-88
2023/09/20 03:47:45;;;;;;;12.13;3.45;;;18.70;99.90;;;;;;5070385;28;20024;-87
2023/09/20 03:50:11;;;;;;;8.50;3.30;;;18.80;99.90;;;;;;5071243;28;20043;-87
2023/09/20 03:52:37;;;;;;;9.43;3.33;;;18.80;99.90;;;;;;5070679;28;20055;-83
2023/09/20 03:55:06;;;;;;;9.13;3.65;;;18.80;99.90;;;;;;5083049;28;20450;-85
2023/09/20 03:57:33;;;;;;;9.07;3.10;;;18.80;99.90;;;;;;5090762;28;20024;-85
2023/09/20 03:59:58;;;;;;;16.60;3.25;;;18.80;99.90;;;;;;5091686;28;20035;-85
2023/09/20 04:02:24;;;;;;;8.40;3.58;;;18.80;99.90;;;;;;5091695;28;20042;-83
2023/09/20 04:04:51;;;;;;;8.65;2.83;;;18.70;99.90;;;;;;5091877;28;20422;-84
2023/09/20 04:07:17;;;;;;;11.25;3.40;;;18.80;99.90;;;;;;5091005;28;20025;-85
2023/09/20 04:09:44;;;;;;;10.00;3.08;;;18.80;99.90;;;;;;5091490;28;20039;-83
2023/09/20 04:12:11;;;;;;;11.23;3.45;;;18.80;99.90;;;;;;5090583;28;20047;-85
2023/09/20 04:14:37;;;;;;;10.50;3.28;;;18.80;99.90;;;;;;5090267;28;20032;-83
2023/09/20 04:17:04;;;;;;;9.02;3.15;;;18.70;99.90;;;;;;5091570;28;20385;-85
2023/09/20 04:19:30;;;;;;;14.48;3.50;;;18.70;99.90;;;;;;5091612;28;20024;-84
2023/09/20 04:21:56;;;;;;;8.38;2.80;;;18.70;99.90;;;;;;5090122;28;20048;-85
2023/09/20 04:24:22;;;;;;;7.88;2.90;;;18.70;99.90;;;;;;5091407;28;20503;-84
2023/09/20 04:26:48;;;;;;;10.75;3.10;;;18.60;99.90;;;;;;5092357;28;20028;-84
2023/09/20 04:29:14;;;;;;;9.73;3.10;;;18.70;99.90;;;;;;5090095;28;20368;-83
2023/09/20 04:31:40;;;;;;;7.65;3.45;;;18.70;99.90;;;;;;5090020;28;20039;-84
2023/09/20 04:34:06;;;;;;;10.02;3.22;;;18.70;99.90;;;;;;5091385;28;20024;-84
2023/09/20 04:36:31;;;;;;;10.13;3.05;;;18.70;99.90;;;;;;5091193;28;20035;-84
2023/09/20 04:38:57;;;;;;;9.65;3.33;;;18.70;99.90;;;;;;5091187;28;20024;-84
2023/09/20 04:41:23;;;;;;;11.10;3.00;;;18.70;99.90;;;;;;5091167;28;20361;-84
2023/09/20 04:43:49;;;;;;;6.72;2.90;;;18.70;99.90;;;;;;5091696;28;20062;-84
2023/09/20 04:46:15;;;;;;;7.38;2.85;;;18.70;99.90;;;;;;5089629;28;20101;-85
2023/09/20 04:48:41;;;;;;;10.45;2.92;;;18.70;99.90;;;;;;5090710;28;20442;-84
2023/09/20 04:51:07;;;;;;;12.15;3.10;;;18.70;99.90;;;;;;5089198;28;20109;-85
2023/09/20 04:53:33;;;;;;;9.93;2.90;;;18.90;99.90;;;;;;5090993;28;20024;-85
2023/09/20 04:55:59;;;;;;;14.45;3.60;;;18.80;99.90;;;;;;5090934;28;20077;-84
2023/09/20 04:58:25;;;;;;;10.90;2.97;;;18.80;99.90;;;;;;5090180;28;20031;-84
2023/09/20 05:00:51;;;;;;;9.88;3.08;;;18.90;99.90;;;;;;5091528;28;20016;-88
2023/09/20 05:03:17;;;;;;;9.10;2.83;;;18.90;99.90;;;;;;5076513;28;20031;-84
2023/09/20 05:05:45;;;;;;;7.22;2.92;;;19.00;99.90;;;;;;5075137;28;20032;-84
2023/09/20 05:08:10;;;;;;;9.05;2.85;;;19.00;99.90;;;;;;5089254;28;20039;-83
2023/09/20 05:10:36;;;;;;;10.70;3.15;;;18.90;99.90;;;;;;5090099;28;20036;-84
2023/09/20 05:13:03;;;;;;;8.27;3.10;;;19.00;99.90;;;;;;5090213;28;20016;-84
2023/09/20 05:15:29;;;;;;;5.72;3.10;;;19.00;99.90;;;;;;5072204;28;20032;-85
2023/09/20 05:17:56;;;;;;;7.47;3.10;;;19.10;99.90;;;;;;5082586;28;20028;-84
2023/09/20 05:20:21;;;;;;;8.68;2.97;;;19.10;99.90;;;;;;5079824;28;20094;-84
2023/09/20 05:22:47;;;;;;;8.30;2.80;;;19.00;99.90;;;;;;5084120;28;20025;-83
2023/09/20 05:25:13;;;;;;;7.38;3.00;;;18.90;99.90;;;;;;5087707;28;20038;-85
2023/09/20 05:27:38;;;;;;;7.32;2.70;;;19.00;99.90;;;;;;5089085;28;20020;-83
2023/09/20 05:30:05;;;;;;;7.68;2.92;;;18.90;99.90;;;;;;5089969;28;20064;-84
2023/09/20 05:32:31;;;;;;;10.23;3.25;;;18.90;99.90;;;;;;5110237;27;20020;-84
2023/09/20 05:34:56;;;;;;;10.50;3.42;;;18.90;99.90;;;;;;5110444;28;20028;-85
2023/09/20 05:37:22;;;;;;;8.73;3.10;;;18.80;99.90;;;;;;5094885;28;20089;-83
2023/09/20 05:39:49;;;;;;;8.27;3.28;;;18.80;99.90;;;;;;5089968;28;20018;-87
2023/09/20 05:42:15;;;;;;;9.93;2.95;;;18.70;99.90;;;;;;5089109;28;20164;-86
2023/09/20 05:44:41;;;;;;;7.38;3.20;;;18.80;99.90;;;;;;5090208;28;20035;-86
2023/09/20 05:47:10;;;;;;;7.65;3.08;;;18.80;99.90;;;;;;5088846;28;20024;-86
2023/09/20 05:49:36;;;;;;;7.78;2.80;;;18.80;99.90;;;;;;5088546;28;20502;-86
2023/09/20 05:52:05;;;;;;;9.80;3.10;;;18.80;99.90;;;;;;5088969;28;20020;-87
2023/09/20 05:54:31;;;;;;;8.23;3.00;;;18.80;99.90;;;;;;5074564;28;20515;-84
2023/09/20 05:56:59;;;;;;;10.07;3.03;;;18.80;99.90;;;;;;5069475;28;20021;-85
2023/09/20 05:59:26;;;;;;;9.10;2.95;;;18.80;99.90;;;;;;5070363;28;20028;-86
2023/09/20 06:01:52;;;;;;;10.20;2.83;;;18.80;99.90;;;;;;5070462;28;20074;-86
2023/09/20 06:04:19;;;;;;;8.05;2.53;;;18.70;99.90;;;;;;5069615;28;20267;-86
2023/09/20 06:06:45;;;;;;;10.73;3.05;;;18.70;99.90;;;;;;5079337;28;20031;-85
2023/09/20 06:09:10;;;;;;;9.07;2.83;;;18.80;99.90;;;;;;5089455;28;20044;-84
2023/09/20 06:11:36;;;;;;;7.63;2.58;;;18.80;99.90;;;;;;5087735;28;20099;-85
2023/09/20 06:14:04;;;;;;;12.00;4.00;;;18.80;99.90;;;;;;5087067;28;20111;-84
2023/09/20 06:16:30;;;;;;;9.88;2.95;;;18.80;99.90;;;;;;5086370;28;20545;-85
2023/09/20 06:18:56;;;;;;;11.95;3.00;;;18.80;99.90;;;;;;5089770;28;20024;-86
2023/09/20 06:21:23;;;;;;;10.38;3.08;;;18.80;99.90;;;;;;5088544;28;20085;-86
2023/09/20 06:23:49;;;;;;;10.85;2.85;;;18.90;99.90;;;;;;5104785;28;20510;-86
2023/09/20 06:26:15;;;;;;;11.15;3.00;;;18.90;99.90;;;;;;5087617;28;20060;-85
2023/09/20 06:28:41;;;;;;;7.45;2.55;;;18.90;99.90;;;;;;5072105;28;20434;-84
2023/09/20 06:31:16;;;;;;;6.78;2.70;;;18.90;99.90;;;;;;5074815;28;20411;-85
2023/09/20 06:33:46;;;;;;;10.43;3.63;;;19.00;99.90;;;;;;5088824;28;20384;-85
2023/09/20 06:36:22;;;;;;;11.45;2.95;;;19.10;99.90;;;;;;5087043;28;20024;-85
2023/09/20 06:38:49;;;;;;;11.10;2.83;;;19.10;99.90;;;;;;5087344;28;20198;-85
2023/09/20 06:41:15;;;;;;;6.63;2.60;;;19.10;99.90;;;;;;5088597;28;20155;-85
2023/09/20 06:43:42;;;;;;;7.93;2.70;;;19.20;99.90;;;;;;5087637;28;20024;-85
2023/09/20 06:46:07;;;;;;;7.80;2.75;;;19.20;99.90;;;;;;5087125;28;20036;-85
2023/09/20 06:48:33;;;;;;;7.22;2.63;;;19.30;99.90;;;;;;5088665;28;20028;-84
2023/09/20 06:51:00;;;;;;;10.00;3.05;;;19.20;99.90;;;;;;5088180;28;20042;-85
2023/09/20 06:53:25;;;;;;;12.52;2.88;;;19.30;99.90;;;;;;5106359;28;20369;-84
2023/09/20 06:55:51;;;;;;;10.82;2.70;;;19.30;99.90;;;;;;5088956;28;20028;-85
2023/09/20 06:58:18;;;;;;;11.32;2.75;;;19.40;99.90;;;;;;5088577;28;20048;-85
2023/09/20 07:00:43;;;;;;;10.52;2.85;;;19.40;99.90;;;;;;5087413;28;20444;-85
2023/09/20 07:03:09;;;;;;;10.68;3.65;;;19.40;99.90;;;;;;5088900;28;20103;-84
2023/09/20 07:05:35;;;;;;;8.10;2.47;;;19.40;99.90;;;;;;5086956;28;20025;-84
2023/09/20 07:08:01;;;;;;;7.70;2.78;;;19.40;99.90;;;;;;5087678;28;20472;-84
2023/09/20 07:10:31;;;;;;;9.35;2.75;;;19.40;99.90;;;;;;5087954;28;20028;-84
2023/09/20 07:12:57;;;;;;;8.70;2.80;;;19.40;99.90;;;;;;5089293;28;20028;-85
2023/09/20 07:15:28;;;;;;;7.80;2.50;;;19.40;99.90;;;;;;5088542;28;20471;-86
2023/09/20 07:18:00;;;;;;;6.80;2.17;;;19.40;99.90;;;;;;5103110;28;20015;-84
2023/09/20 07:20:29;;;;;;;9.27;2.92;;;19.50;99.90;;;;;;5089598;28;20024;-87
2023/09/20 07:22:55;;;;;;;11.63;3.00;;;19.50;99.90;;;;;;5091560;28;20086;-85
2023/09/20 07:25:22;;;;;;;11.40;2.63;;;19.50;99.90;;;;;;5092727;28;20023;-85
2023/09/20 07:27:49;;;;;;;14.93;3.15;;;19.50;99.90;;;;;;5092621;28;20161;-86
2023/09/20 07:30:19;;;;;;;13.02;3.00;;;19.50;99.90;;;;;;5095174;28;20035;-86
2023/09/20 07:32:46;;;;;;;9.15;2.60;;;19.50;99.90;;;;;;5112787;28;20106;-86
2023/09/20 07:35:28;;;;;;;10.27;3.08;;;19.60;99.90;;;;;;5106884;28;20487;-86
2023/09/20 07:37:57;;;;;;;12.77;2.75;;;19.60;99.90;;;;;;5092542;28;20022;-87
2023/09/20 07:40:41;;;;;;;10.82;3.10;;;19.70;99.90;;;;;;5092262;28;20113;-86
2023/09/20 07:43:10;;;;;;;11.13;2.70;;;19.70;99.90;;;;;;5091449;28;20024;-87
2023/09/20 07:45:41;;;;;;;9.90;3.03;;;19.70;99.90;;;;;;5092146;28;20028;-88
2023/09/20 07:48:16;;;;;;;9.82;2.60;;;19.70;99.90;;;;;;5092331;28;20134;-87
2023/09/20 07:50:45;;;;;;;11.68;2.33;;;19.80;99.90;;;;;;5092153;28;20035;-86
2023/09/20 07:53:15;;;;;;;17.13;3.72;;;19.90;99.90;;;;;;5086701;28;20484;-86
2023/09/20 07:55:44;;;;;;;9.13;2.70;;;19.90;99.90;;;;;;5071809;28;20025;-86
2023/09/20 07:58:16;;;;;;;6.85;2.40;;;20.00;99.90;;;;;;5087348;28;20020;-86
2023/09/20 08:00:44;;;;;;;7.10;2.33;;;20.10;99.90;;;;;;5071493;28;20028;-87
2023/09/20 08:03:10;;;;;;;10.68;2.40;;;20.20;99.90;;;;;;5080526;28;20020;-86
2023/09/20 08:05:37;;;;;;;8.65;2.72;;;20.20;99.90;;;;;;5090305;28;20107;-88
2023/09/20 08:08:04;;;;;;;10.63;2.70;;;20.20;99.90;;;;;;5091769;28;20024;-85
2023/09/20 08:10:30;;;;;;;16.70;3.38;;;20.20;99.90;;;;;;5076300;28;20492;-87
2023/09/20 08:12:57;;;;;;;15.05;3.08;;;20.30;99.90;;;;;;5085587;28;20046;-87
2023/09/20 08:15:23;;;;;;;9.90;3.00;;;20.40;99.90;;;;;;5108215;28;20034;-87
2023/09/20 08:20:37;;;;;;;13.50;2.70;;;20.50;99.90;;;;;;5091810;28;20514;-86
2023/09/20 09:01:44;;;;;;;11.40;2.60;;;20.80;99.90;;;;;;5074442;28;20515;-87
2023/09/20 09:04:12;;;;;;;11.95;2.42;;;20.80;99.90;;;;;;5073271;28;20081;-87
2023/09/20 09:06:39;;;;;;;8.90;2.83;;;20.80;99.90;;;;;;5088698;28;20028;-84
2023/09/20 09:09:04;;;;;;;11.00;2.58;;;20.90;99.90;;;;;;5090476;28;20063;-86
2023/09/20 09:11:30;;;;;;;8.75;2.60;;;20.90;99.90;;;;;;5090873;28;20055;-85
2023/09/20 09:14:00;;;;;;;15.23;2.45;;;20.90;99.90;;;;;;5089261;28;20024;-86
2023/09/20 09:16:30;;;;;;;9.45;2.63;;;20.90;99.90;;;;;;5088845;28;20115;-85
2023/09/20 09:18:56;;;;;;;12.05;2.58;;;21.00;99.90;;;;;;5088752;28;20023;-87
2023/09/20 09:21:22;;;;;;;14.38;3.30;;;21.10;99.90;;;;;;5090475;28;20026;-85
2023/09/20 09:23:48;;;;;;;15.38;2.70;;;21.10;99.90;;;;;;5090152;28;20031;-85
2023/09/20 09:26:15;;;;;;;7.57;2.35;;;21.00;99.90;;;;;;5088771;28;20028;-85
2023/09/20 09:28:42;;;;;;;11.20;3.08;;;21.10;99.90;;;;;;5088531;28;20509;-85
2023/09/20 09:31:08;;;;;;;11.73;2.70;;;21.10;99.90;;;;;;5088452;28;20119;-86
2023/09/20 09:33:36;;;;;;;20.27;9.55;;;21.10;99.90;;;;;;5088624;28;20125;-85
2023/09/20 09:36:03;;;;;;;;;;;21.30;99.90;;;;;;5080079;28;20479;-85
2023/09/20 09:38:32;;;;;;;31.88;15.68;;;21.30;99.90;;;;;;5089989;28;19995;-86
2023/09/20 09:40:58;;;;;;;14.88;5.30;;;21.30;99.90;;;;;;5089565;28;20060;-85
2023/09/20 09:43:28;;;;;;;68.93;40.42;;;21.20;99.90;;;;;;5089567;28;20034;-87
2023/09/20 09:46:00;;;;;;;21.70;9.25;;;21.40;99.90;;;;;;5089455;28;20039;-85
2023/09/20 09:48:29;;;;;;;29.80;15.80;;;21.40;99.90;;;;;;5089690;28;20388;-85
2023/09/20 09:50:59;;;;;;;13.27;5.13;;;21.40;99.90;;;;;;5093927;28;20437;-86
2023/09/20 09:53:25;;;;;;;16.23;4.05;;;21.60;99.90;;;;;;5089441;28;20024;-86
2023/09/20 09:55:51;;;;;;;10.32;3.28;;;21.70;99.90;;;;;;5104963;28;20028;-86
2023/09/20 09:58:18;;;;;;;8.60;2.78;;;21.70;99.90;;;;;;5108194;28;20016;-85
2023/09/20 10:00:48;;;;;;;7.35;2.50;;;21.80;99.90;;;;;;5096550;28;20073;-85
2023/09/20 10:03:32;;;;;;;13.05;2.75;;;21.80;99.90;;;;;;5108155;28;20034;-87
2023/09/20 10:06:14;;;;;;;14.20;2.83;;;21.90;99.90;;;;;;5101690;28;20031;-86
2023/09/20 10:08:42;;;;;;;10.13;2.78;;;21.90;99.90;;;;;;5091516;28;20039;-86
2023/09/20 10:11:08;;;;;;;;;;;21.90;99.90;;;;;;5088832;28;20043;-87
2023/09/20 10:13:36;;;;;;;10.23;2.75;;;21.90;99.90;;;;;;5089928;28;19908;-87
2023/09/20 10:16:04;;;;;;;12.43;3.10;;;22.00;99.90;;;;;;5088714;28;20035;-88
2023/09/20 10:18:53;;;;;;;10.75;2.70;;;21.90;99.90;;;;;;5087936;28;20023;-87
2023/09/20 10:21:25;;;;;;;7.97;2.45;;;21.90;99.90;;;;;;5105795;28;20042;-88
2023/09/20 10:23:58;;;;;;;10.88;2.80;;;21.80;99.90;;;;;;5105646;28;20021;-87
2023/09/20 10:26:26;;;;;;;8.80;2.78;;;21.90;99.90;;;;;;5089639;28;20052;-88
2023/09/20 10:28:57;;;;;;;5.15;2.40;;;22.00;99.90;;;;;;5094780;28;20472;-87
2023/09/20 10:31:25;;;;;;;7.22;2.60;;;22.10;99.90;;;;;;5095471;28;20040;-87
2023/09/20 10:33:55;;;;;;;11.30;2.70;;;22.10;99.90;;;;;;5089568;28;20103;-87
2023/09/20 10:36:30;;;;;;;9.93;2.65;;;22.30;99.90;;;;;;5096747;28;20114;-87
2023/09/20 10:39:19;;;;;;;5.80;2.58;;;22.40;99.90;;;;;;5108618;28;20048;-87
2023/09/20 10:41:46;;;;;;;8.25;2.03;;;22.40;99.90;;;;;;5106626;28;20124;-86
2023/09/20 10:44:30;;;;;;;6.25;2.10;;;22.30;99.90;;;;;;5088754;28;20153;-86
2023/09/20 10:46:58;;;;;;;8.07;2.28;;;22.30;99.90;;;;;;5087794;28;20024;-88
2023/09/20 10:49:48;;;;;;;8.73;2.20;;;22.20;99.90;;;;;;5088663;28;20495;-87
2023/09/20 10:52:32;;;;;;;8.05;2.15;;;22.20;99.90;;;;;;5087913;28;20024;-86
2023/09/20 10:55:24;;;;;;;5.05;2.15;;;22.30;99.90;;;;;;5089022;28;20028;-87
2023/09/20 10:57:50;;;;;;;6.93;2.15;;;22.40;99.90;;;;;;5067796;28;20028;-87
2023/09/20 11:00:25;;;;;;;8.50;2.53;;;22.40;99.90;;;;;;5093197;28;20032;-87
2023/09/20 11:02:53;;;;;;;13.43;2.30;;;22.40;99.90;;;;;;5093496;28;20023;-87
2023/09/20 11:05:19;;;;;;;12.50;2.85;;;22.30;99.90;;;;;;5092942;28;20415;-87
2023/09/20 11:07:49;;;;;;;6.93;2.00;;;22.30;99.90;;;;;;5093397;28;20025;-88
2023/09/20 11:10:19;;;;;;;9.13;2.40;;;22.30;99.90;;;;;;5092981;28;20032;-86
2023/09/20 11:12:45;;;;;;;7.05;2.30;;;22.20;99.90;;;;;;5093247;28;20095;-87
2023/09/20 11:15:13;;;;;;;7.95;1.83;;;22.40;99.90;;;;;;5092215;28;20115;-87
2023/09/20 11:17:38;;;;;;;;;;;22.60;99.90;;;;;;5096769;28;20019;-85
2023/09/20 11:20:06;;;;;;;8.60;2.30;;;22.70;99.90;;;;;;5111535;28;19904;-86
2023/09/20 11:22:32;;;;;;;9.48;2.35;;;22.80;99.90;;;;;;5113354;28;20023;-86
2023/09/20 11:24:58;;;;;;;10.73;2.25;;;22.90;99.90;;;;;;5111828;28;20083;-87
2023/09/20 11:27:24;;;;;;;8.82;2.40;;;23.00;99.90;;;;;;5111774;28;20456;-86
2023/09/20 11:29:50;;;;;;;9.50;2.28;;;23.20;99.90;;;;;;5111621;28;20023;-87
2023/09/20 11:32:21;;;;;;;5.47;2.08;;;23.40;99.90;;;;;;5111858;28;20402;-88
2023/09/20 11:34:49;;;;;;;8.35;2.38;;;23.30;99.90;;;;;;5093570;28;20027;-88
2023/09/20 11:37:17;;;;;;;6.72;3.10;;;23.40;99.90;;;;;;5092215;28;20031;-88
2023/09/20 11:39:47;;;;;;;11.98;2.13;;;23.30;99.90;;;;;;5092319;28;20023;-88
2023/09/20 11:42:32;;;;;;;10.65;2.67;;;23.30;99.90;;;;;;5090166;28;20070;-88
2023/09/20 11:45:07;;;;;;;8.63;2.92;;;23.40;99.90;;;;;;5107221;28;20168;-88
2023/09/20 11:47:37;;;;;;;8.30;2.20;;;23.20;99.90;;;;;;5091983;28;20036;-87
2023/09/20 11:50:04;;;;;;;9.45;2.30;;;23.20;99.90;;;;;;5091508;28;20597;-87
2023/09/20 11:52:30;;;;;;;7.43;2.10;;;23.20;99.90;;;;;;5092811;28;20039;-87
2023/09/20 11:54:59;;;;;;;8.35;2.40;;;23.40;99.90;;;;;;5091210;28;20081;-87
2023/09/20 11:57:25;;;;;;;9.40;2.35;;;23.40;99.90;;;;;;5091247;28;20024;-88
2023/09/20 11:59:54;;;;;;;7.78;2.08;;;23.40;99.90;;;;;;5090834;28;20078;-88
2023/09/20 12:02:20;;;;;;;8.93;2.00;;;23.30;99.90;;;;;;5092300;28;20032;-88
2023/09/20 12:04:51;;;;;;;8.02;2.45;;;23.10;99.90;;;;;;5092309;28;20023;-88
2023/09/20 12:07:17;;;;;;;9.48;2.38;;;23.00;99.90;;;;;;5090873;28;20023;-89
2023/09/20 12:09:43;;;;;;;5.47;2.20;;;23.00;99.90;;;;;;5090657;28;20035;-88
2023/09/20 12:12:10;;;;;;;10.98;2.45;;;22.80;99.90;;;;;;5092501;28;20036;-88
2023/09/20 12:14:38;;;;;;;10.60;2.30;;;22.70;99.90;;;;;;5107959;28;20403;-87
2023/09/20 12:17:06;;;;;;;9.70;2.33;;;22.60;99.90;;;;;;5090931;28;20517;-88
2023/09/20 12:19:32;;;;;;;11.90;2.80;;;22.80;99.90;;;;;;5092721;28;20110;-89
2023/09/20 12:21:58;;;;;;;6.68;1.85;;;22.80;99.90;;;;;;5091166;28;20031;-89
2023/09/20 12:24:24;;;;;;;8.75;2.17;;;22.70;99.90;;;;;;5092012;28;20032;-88
2023/09/20 12:26:51;;;;;;;6.93;2.00;;;22.80;99.90;;;;;;5092057;28;20021;-87
2023/09/20 12:29:17;;;;;;;7.47;2.28;;;22.70;99.90;;;;;;5090745;28;20035;-88
2023/09/20 12:31:47;;;;;;;8.20;1.98;;;22.50;99.90;;;;;;5092810;28;20020;-89
2023/09/20 12:34:13;;;;;;;8.30;2.10;;;22.70;99.90;;;;;;5091609;28;20032;-88
2023/09/20 12:36:39;;;;;;;6.00;2.00;;;22.70;99.90;;;;;;5091195;28;20407;-87
2023/09/20 12:39:05;;;;;;;6.93;2.00;;;22.80;99.90;;;;;;5091021;28;20511;-87
2023/09/20 12:41:31;;;;;;;8.00;2.42;;;22.90;99.90;;;;;;5090373;28;20490;-90
2023/09/20 12:43:56;;;;;;;7.07;1.90;;;23.00;99.90;;;;;;5090815;28;20024;-88
2023/09/20 12:46:24;;;;;;;8.82;2.28;;;23.00;99.90;;;;;;5090597;28;20488;-87
2023/09/20 12:48:50;;;;;;;6.22;1.83;;;23.10;99.90;;;;;;5090488;28;20024;-89
2023/09/20 12:51:15;;;;;;;11.18;2.60;;;23.10;99.90;;;;;;5090414;28;20529;-89
2023/09/20 12:53:44;;;;;;;9.20;2.63;;;23.00;99.90;;;;;;5091338;28;20081;-89
2023/09/20 12:56:13;;;;;;;9.70;2.55;;;23.00;99.90;;;;;;5090630;28;20035;-89
2023/09/20 12:58:41;;;;;;;9.57;2.15;;;23.10;99.90;;;;;;5090166;28;20042;-89
2023/09/20 13:01:10;;;;;;;8.10;2.30;;;23.00;99.90;;;;;;5090507;28;20056;-88
2023/09/20 13:03:37;;;;;;;8.95;2.20;;;23.00;99.90;;;;;;5090746;28;20230;-87
2023/09/20 13:06:03;;;;;;;7.07;2.10;;;23.00;99.90;;;;;;5091320;28;20028;-87
2023/09/20 13:08:29;;;;;;;9.32;2.30;;;23.00;99.90;;;;;;5090572;28;20028;-88
2023/09/20 13:10:55;;;;;;;6.63;2.05;;;23.10;99.90;;;;;;5090351;28;20036;-89
2023/09/20 13:13:20;;;;;;;9.52;2.28;;;23.10;99.90;;;;;;5090615;28;20028;-87
2023/09/20 13:15:47;;;;;;;8.85;2.47;;;23.20;99.90;;;;;;5090527;28;20403;-89
2023/09/20 13:18:12;;;;;;;6.10;1.90;;;23.10;99.90;;;;;;5100958;28;20368;-88
2023/09/20 13:20:42;;;;;;;6.68;2.03;;;23.20;99.90;;;;;;5086020;28;20030;-88
2023/09/20 13:23:09;;;;;;;5.47;1.90;;;23.30;99.90;;;;;;5090963;28;20031;-89
2023/09/20 13:25:35;;;;;;;9.18;2.47;;;23.40;99.90;;;;;;5090402;28;20024;-89
2023/09/20 13:28:02;;;;;;;8.60;2.03;;;23.50;99.90;;;;;;5090553;28;20413;-89